createdAt,value
2019-03-19T00:01:26.558Z,2.40
2019-03-19T00:03:57.178Z,2.37
2019-03-19T00:06:27.422Z,2.50
2019-03-19T00:08:57.259Z,2.07
2019-03-19T00:11:27.093Z,2.17
2019-03-19T00:13:56.849Z,1.90
2019-03-19T00:16:26.674Z,2.30
2019-03-19T00:18:56.460Z,2.57
2019-03-19T00:21:27.158Z,2.40
2019-03-19T00:23:57.420Z,2.53
2019-03-19T00:26:28.096Z,2.50
2019-03-19T00:28:58.276Z,2.10
2019-03-19T00:31:28.108Z,2.40
2019-03-19T00:33:57.896Z,2.37
2019-03-19T00:36:28.060Z,2.73
2019-03-19T00:38:57.866Z,2.40
2019-03-19T00:41:27.697Z,2.63
2019-03-19T00:43:57.496Z,2.57
2019-03-19T00:46:27.312Z,2.97
2019-03-19T00:48:57.091Z,3.00
2019-03-19T00:51:26.907Z,2.67
2019-03-19T00:53:56.698Z,2.43
2019-03-19T00:56:26.870Z,2.60
2019-03-19T00:58:57.172Z,2.47
2019-03-19T01:01:27.010Z,2.90
2019-03-19T01:03:56.820Z,2.63
2019-03-19T01:06:26.646Z,2.80
2019-03-19T01:08:57.154Z,2.87
2019-03-19T01:11:26.990Z,3.00
2019-03-19T01:13:56.779Z,3.17
2019-03-19T01:16:26.600Z,3.03
2019-03-19T01:18:56.373Z,3.30
2019-03-19T01:21:26.378Z,2.80
2019-03-19T01:23:56.186Z,2.97
2019-03-19T01:26:26.012Z,3.20
2019-03-19T01:28:55.817Z,3.30
2019-03-19T01:31:26.129Z,3.50
2019-03-19T01:33:56.825Z,2.83
2019-03-19T01:36:26.643Z,3.43
2019-03-19T01:38:56.970Z,3.60
2019-03-19T01:41:26.831Z,3.73
2019-03-19T01:43:56.988Z,3.27
2019-03-19T01:46:26.826Z,3.20
2019-03-19T01:48:57.651Z,3.30
2019-03-19T01:51:27.906Z,3.90
2019-03-19T01:53:58.063Z,3.77
2019-03-19T01:56:28.025Z,3.37
2019-03-19T01:58:58.221Z,3.47
2019-03-19T02:01:28.613Z,3.33
2019-03-19T02:03:58.441Z,3.53
2019-03-19T02:06:28.259Z,3.83
2019-03-19T02:08:58.059Z,3.30
2019-03-19T02:11:27.889Z,3.43
2019-03-19T02:13:58.779Z,3.67
2019-03-19T02:16:28.986Z,3.60
2019-03-19T02:18:59.203Z,3.53
2019-03-19T02:21:29.057Z,3.77
2019-03-19T02:23:59.337Z,3.57
2019-03-19T02:26:29.589Z,3.57
2019-03-19T02:28:59.899Z,3.13
2019-03-19T02:31:29.721Z,3.07
2019-03-19T02:33:59.906Z,3.60
2019-03-19T02:36:29.746Z,3.47
2019-03-19T02:38:59.565Z,3.33
2019-03-19T02:41:29.908Z,3.37
2019-03-19T02:43:59.890Z,3.33
2019-03-19T02:46:30.285Z,3.60
2019-03-19T02:49:00.098Z,3.63
2019-03-19T02:51:29.931Z,3.70
2019-03-19T02:54:00.255Z,3.57
2019-03-19T02:56:33.024Z,4.03
2019-03-19T02:59:02.006Z,3.87
2019-03-19T03:01:32.213Z,3.80
2019-03-19T03:04:02.599Z,3.63
2019-03-19T03:06:32.972Z,3.90
2019-03-19T03:09:03.992Z,3.60
2019-03-19T03:11:33.832Z,3.70
2019-03-19T03:14:03.630Z,3.50
2019-03-19T03:16:33.465Z,3.57
2019-03-19T03:19:03.233Z,3.97
2019-03-19T03:21:34.687Z,3.77
2019-03-19T03:24:05.532Z,3.73
2019-03-19T03:26:47.038Z,4.17
2019-03-19T03:29:07.302Z,4.17
2019-03-19T03:31:37.152Z,4.43
2019-03-19T03:34:07.015Z,3.97
2019-03-19T03:36:38.022Z,3.67
2019-03-19T03:39:09.039Z,3.90
2019-03-19T03:41:38.959Z,4.10
2019-03-19T03:44:08.896Z,4.30
2019-03-19T03:46:38.738Z,3.83
2019-03-19T03:49:08.628Z,3.93
2019-03-19T03:51:38.881Z,3.63
2019-03-19T03:54:09.137Z,3.73
2019-03-19T03:56:39.455Z,3.73
2019-03-19T03:59:09.276Z,3.83
2019-03-19T04:01:39.110Z,4.30
2019-03-19T04:04:08.928Z,4.17
2019-03-19T04:06:39.197Z,4.73
2019-03-19T04:09:09.627Z,4.30
2019-03-19T04:11:39.452Z,4.10
2019-03-19T04:14:09.258Z,4.20
2019-03-19T04:16:39.042Z,4.63
2019-03-19T04:19:09.326Z,4.10
2019-03-19T04:21:39.102Z,4.60
2019-03-19T04:24:09.691Z,4.50
2019-03-19T04:26:39.509Z,4.77
2019-03-19T04:29:09.341Z,4.67
2019-03-19T04:31:39.147Z,4.57
2019-03-19T04:34:08.966Z,4.50
2019-03-19T04:36:39.102Z,4.33
2019-03-19T04:39:09.691Z,4.93
2019-03-19T04:41:39.962Z,4.67
2019-03-19T04:44:09.784Z,4.63
2019-03-19T04:46:39.581Z,4.67
2019-03-19T04:49:09.405Z,4.87
2019-03-19T04:51:39.198Z,4.70
2019-03-19T04:54:09.187Z,4.60
2019-03-19T04:56:39.968Z,4.40
2019-03-19T04:59:09.792Z,4.80
2019-03-19T05:01:40.088Z,4.73
2019-03-19T05:04:09.972Z,4.70
2019-03-19T05:06:40.767Z,4.57
2019-03-19T05:09:11.125Z,4.27
2019-03-19T05:11:40.887Z,4.60
2019-03-19T05:14:10.714Z,4.93
2019-03-19T05:16:41.039Z,4.70
2019-03-19T05:19:11.406Z,5.13
2019-03-19T05:21:41.199Z,5.20
2019-03-19T05:24:12.198Z,4.97
2019-03-19T05:26:42.984Z,5.03
2019-03-19T05:29:13.341Z,5.17
2019-03-19T05:31:43.117Z,5.67
2019-03-19T05:34:13.342Z,5.20
2019-03-19T05:36:43.539Z,4.80
2019-03-19T05:39:13.309Z,5.67
2019-03-19T05:41:43.166Z,5.33
2019-03-19T05:44:12.929Z,5.23
2019-03-19T05:46:42.759Z,5.27
2019-03-19T05:49:13.032Z,5.97
2019-03-19T05:51:42.861Z,6.30
2019-03-19T05:54:12.597Z,5.70
2019-03-19T05:56:42.466Z,5.73
2019-03-19T05:59:12.763Z,6.13
2019-03-19T06:01:42.582Z,5.57
2019-03-19T06:04:12.913Z,6.13
2019-03-19T06:06:42.736Z,6.20
2019-03-19T06:09:12.570Z,6.30
2019-03-19T06:11:42.399Z,5.90
2019-03-19T06:14:12.582Z,5.43
2019-03-19T06:16:42.861Z,5.37
2019-03-19T06:19:13.041Z,5.57
2019-03-19T06:21:42.866Z,5.70
2019-03-19T06:24:13.190Z,5.63
2019-03-19T06:26:43.865Z,5.27
2019-03-19T06:29:13.838Z,5.33
2019-03-19T06:31:44.064Z,4.77
2019-03-19T06:34:14.377Z,5.13
2019-03-19T06:36:44.212Z,5.87
2019-03-19T06:39:14.597Z,5.73
2019-03-19T06:41:44.488Z,5.50
2019-03-19T06:44:14.272Z,4.87
2019-03-19T06:46:44.102Z,4.80
2019-03-19T06:49:14.856Z,4.60
2019-03-19T06:51:44.667Z,4.63
2019-03-19T06:54:14.475Z,5.03
2019-03-19T06:56:44.311Z,4.93
2019-03-19T06:59:14.089Z,5.83
2019-03-19T07:01:43.921Z,4.93
2019-03-19T07:04:14.186Z,5.23
2019-03-19T07:06:44.035Z,4.27
2019-03-19T07:09:13.833Z,5.40
2019-03-19T07:11:44.196Z,5.30
2019-03-19T07:14:14.108Z,5.23
2019-03-19T07:16:43.961Z,5.57
2019-03-19T07:19:13.743Z,5.03
2019-03-19T07:21:44.114Z,5.40
2019-03-19T07:24:13.918Z,5.17
2019-03-19T07:26:44.100Z,5.80
2019-03-19T07:29:13.911Z,5.67
2019-03-19T07:31:43.814Z,6.13
2019-03-19T07:34:14.131Z,5.60
2019-03-19T07:36:43.956Z,5.70
2019-03-19T07:39:14.195Z,5.70
2019-03-19T07:41:44.057Z,5.13
2019-03-19T07:44:14.406Z,5.47
2019-03-19T07:46:45.952Z,4.60
2019-03-19T07:49:16.032Z,4.73
2019-03-19T07:51:45.843Z,4.60
2019-03-19T07:54:15.631Z,4.73
2019-03-19T07:56:46.251Z,4.87
2019-03-19T07:59:16.087Z,4.33
2019-03-19T08:01:46.640Z,5.03
2019-03-19T08:04:16.791Z,4.60
2019-03-19T08:06:47.159Z,4.50
2019-03-19T08:09:17.298Z,4.10
2019-03-19T08:11:47.874Z,4.63
2019-03-19T08:14:18.167Z,4.70
2019-03-19T08:16:47.982Z,5.00
2019-03-19T08:19:17.825Z,4.03
2019-03-19T08:21:47.654Z,4.17
2019-03-19T08:24:18.369Z,3.80
2019-03-19T08:26:49.178Z,4.17
2019-03-19T08:29:19.086Z,3.90
2019-03-19T08:31:49.371Z,3.97
2019-03-19T08:34:19.585Z,3.47
2019-03-19T08:36:49.446Z,3.60
2019-03-19T08:39:20.759Z,3.87
2019-03-19T08:41:50.664Z,3.10
2019-03-19T08:44:27.610Z,3.50
2019-03-19T08:46:52.680Z,3.30
2019-03-19T08:49:23.610Z,3.30
2019-03-19T08:51:54.304Z,3.70
2019-03-19T08:54:24.363Z,3.80
2019-03-19T08:56:54.380Z,3.30
2019-03-19T08:59:24.222Z,3.03
2019-03-19T09:01:54.510Z,3.20
2019-03-19T09:04:24.535Z,2.93
2019-03-19T09:06:54.815Z,2.93
2019-03-19T09:09:25.869Z,3.10
2019-03-19T09:11:55.741Z,2.20
2019-03-19T09:14:25.528Z,2.50
2019-03-19T09:16:56.016Z,2.73
2019-03-19T09:19:25.798Z,2.10
2019-03-19T09:21:55.623Z,2.50
2019-03-19T09:24:25.787Z,2.00
2019-03-19T09:26:56.544Z,2.10
2019-03-19T09:29:26.799Z,1.67
2019-03-19T09:31:56.618Z,1.77
2019-03-19T09:34:26.398Z,2.20
2019-03-19T09:36:57.627Z,1.90
2019-03-19T09:39:27.588Z,2.00
2019-03-19T09:41:57.788Z,2.10
2019-03-19T09:44:27.876Z,1.50
2019-03-19T09:46:57.804Z,2.00
2019-03-19T09:49:27.547Z,1.73
2019-03-19T09:51:57.913Z,1.93
2019-03-19T09:54:28.942Z,1.97
2019-03-19T09:56:58.708Z,1.90
2019-03-19T09:59:28.661Z,1.57
2019-03-19T10:01:58.425Z,1.57
2019-03-19T10:04:28.259Z,1.60
2019-03-19T10:07:05.677Z,2.17
2019-03-19T10:09:30.216Z,1.70
2019-03-19T10:12:00.014Z,1.47
2019-03-19T10:14:29.835Z,1.30
2019-03-19T10:16:59.601Z,1.70
2019-03-19T10:19:29.869Z,1.60
2019-03-19T10:22:00.068Z,1.53
2019-03-19T10:24:29.874Z,1.33
2019-03-19T10:26:59.646Z,1.27
2019-03-19T10:29:37.952Z,1.40
2019-03-19T10:32:01.392Z,1.30
2019-03-19T10:34:33.209Z,1.40
2019-03-19T10:37:03.067Z,1.50
2019-03-19T10:39:33.447Z,1.60
2019-03-19T10:42:03.691Z,1.40
2019-03-19T10:44:33.539Z,1.50
2019-03-19T10:47:03.850Z,1.37
2019-03-19T10:49:33.661Z,0.90
2019-03-19T10:52:03.895Z,2.10
2019-03-19T10:54:34.091Z,1.67
2019-03-19T10:57:03.902Z,1.60
2019-03-19T10:59:34.139Z,1.67
2019-03-19T11:02:04.980Z,1.73
2019-03-19T11:04:34.741Z,1.63
2019-03-19T11:07:04.496Z,1.40
2019-03-19T11:09:34.662Z,1.50
2019-03-19T11:12:04.959Z,1.60
2019-03-19T11:14:34.872Z,1.60
2019-03-19T11:17:05.170Z,1.47
2019-03-19T11:19:34.965Z,1.70
2019-03-19T11:22:04.682Z,1.50
2019-03-19T11:24:34.486Z,1.57
2019-03-19T11:27:04.283Z,1.37
2019-03-19T11:29:34.094Z,1.60
2019-03-19T11:32:04.368Z,1.83
2019-03-19T11:34:34.189Z,1.70
2019-03-19T11:37:04.390Z,1.80
2019-03-19T11:39:34.231Z,2.00
2019-03-19T11:42:04.076Z,1.70
2019-03-19T11:44:33.884Z,1.30
2019-03-19T11:47:03.583Z,1.40
2019-03-19T11:49:33.502Z,1.70
2019-03-19T11:52:03.278Z,1.80
2019-03-19T11:54:33.451Z,1.50
2019-03-19T11:57:03.223Z,1.90
2019-03-19T11:59:33.005Z,1.70
2019-03-19T12:02:03.199Z,1.60
2019-03-19T12:04:33.494Z,1.87
2019-03-19T12:07:04.116Z,1.40
2019-03-19T12:09:33.908Z,1.87
2019-03-19T12:12:03.689Z,1.60
2019-03-19T12:14:33.531Z,1.43
2019-03-19T12:17:03.747Z,1.80
2019-03-19T12:19:34.371Z,1.80
2019-03-19T12:22:04.569Z,1.30
2019-03-19T12:24:34.717Z,1.73
2019-03-19T12:27:04.454Z,1.40
2019-03-19T12:29:34.594Z,1.73
2019-03-19T12:32:04.326Z,1.40
2019-03-19T12:34:34.086Z,1.63
2019-03-19T12:37:04.410Z,1.60
2019-03-19T12:39:34.185Z,1.27
2019-03-19T12:42:04.882Z,1.77
2019-03-19T12:44:35.112Z,1.33
2019-03-19T12:47:05.355Z,1.60
2019-03-19T12:49:36.738Z,1.80
2019-03-19T12:52:06.923Z,1.50
2019-03-19T12:54:37.862Z,2.00
2019-03-19T12:57:07.806Z,1.50
2019-03-19T12:59:37.634Z,1.60
2019-03-19T13:02:07.800Z,1.63
2019-03-19T13:04:38.197Z,1.53
2019-03-19T13:07:08.003Z,1.23
2019-03-19T13:09:38.516Z,1.33
2019-03-19T13:12:08.286Z,1.37
2019-03-19T13:14:38.093Z,1.67
2019-03-19T13:17:07.944Z,1.77
2019-03-19T13:19:37.780Z,1.33
2019-03-19T13:22:07.548Z,2.00
2019-03-19T13:24:37.920Z,1.50
2019-03-19T13:27:09.634Z,1.67
2019-03-19T13:29:39.704Z,1.40
2019-03-19T13:32:09.529Z,1.33
2019-03-19T13:34:39.330Z,1.50
2019-03-19T13:37:09.144Z,1.50
2019-03-19T13:39:38.997Z,1.43
2019-03-19T13:42:08.693Z,1.53
2019-03-19T13:44:39.600Z,1.67
2019-03-19T13:47:09.410Z,1.60
2019-03-19T13:49:40.133Z,1.60
2019-03-19T13:52:10.306Z,1.20
2019-03-19T13:54:40.177Z,1.03
2019-03-19T13:57:10.092Z,1.20
2019-03-19T13:59:40.416Z,1.20
2019-03-19T14:02:10.203Z,1.33
2019-03-19T14:04:40.571Z,1.40
2019-03-19T14:07:10.984Z,1.23
2019-03-19T14:09:40.833Z,1.20
2019-03-19T14:12:10.921Z,0.87
2019-03-19T14:14:40.741Z,0.93
2019-03-19T14:17:10.562Z,1.13
2019-03-19T14:19:40.371Z,1.23
2019-03-19T14:22:10.644Z,1.37
2019-03-19T14:24:40.471Z,0.97
2019-03-19T14:27:10.181Z,1.03
2019-03-19T14:29:40.490Z,1.30
2019-03-19T14:32:10.250Z,1.00
2019-03-19T14:34:40.089Z,1.10
2019-03-19T14:37:12.267Z,1.30
2019-03-19T14:39:41.353Z,1.33
2019-03-19T14:42:11.163Z,1.10
2019-03-19T14:44:40.934Z,1.20
2019-03-19T14:47:11.205Z,1.77
2019-03-19T14:49:46.531Z,1.20
2019-03-19T14:52:12.952Z,1.90
2019-03-19T14:54:43.561Z,1.70
2019-03-19T14:57:13.770Z,1.70
2019-03-19T14:59:43.584Z,1.60
2019-03-19T15:02:13.859Z,1.50
2019-03-19T15:04:43.639Z,0.90
2019-03-19T15:07:13.452Z,1.10
2019-03-19T15:09:43.212Z,1.03
2019-03-19T15:12:13.513Z,0.97
2019-03-19T15:14:43.275Z,1.10
2019-03-19T15:17:13.652Z,0.63
2019-03-19T15:19:43.422Z,1.20
2019-03-19T15:22:13.270Z,1.30
2019-03-19T15:24:43.026Z,1.10
2019-03-19T15:27:13.443Z,0.70
2019-03-19T15:29:43.832Z,1.03
2019-03-19T15:32:14.699Z,1.10
2019-03-19T15:34:44.473Z,1.03
2019-03-19T15:37:14.266Z,0.90
2019-03-19T15:39:44.355Z,1.20
2019-03-19T15:42:14.620Z,1.10
2019-03-19T15:44:44.411Z,0.90
2019-03-19T15:47:14.210Z,1.50
2019-03-19T15:49:44.038Z,1.10
2019-03-19T15:52:13.759Z,1.10
2019-03-19T15:54:43.604Z,1.13
2019-03-19T15:57:13.452Z,1.10
2019-03-19T15:59:43.626Z,1.27
2019-03-19T16:02:13.453Z,1.07
2019-03-19T16:04:43.354Z,1.07
2019-03-19T16:07:14.083Z,1.20
2019-03-19T16:09:44.548Z,1.57
2019-03-19T16:12:14.836Z,1.20
2019-03-19T16:14:44.696Z,1.10
2019-03-19T16:17:14.985Z,1.30
2019-03-19T16:19:45.350Z,1.70
2019-03-19T16:22:15.951Z,1.73
2019-03-19T16:24:46.195Z,1.40
2019-03-19T16:27:16.518Z,1.60
2019-03-19T16:29:46.852Z,1.23
2019-03-19T16:32:16.677Z,1.50
2019-03-19T16:34:47.611Z,1.97
2019-03-19T16:37:17.774Z,1.60
2019-03-19T16:39:48.117Z,1.70
2019-03-19T16:42:18.616Z,1.47
2019-03-19T16:44:48.408Z,1.50
2019-03-19T16:47:19.159Z,1.97
2019-03-19T16:49:49.019Z,1.90
2019-03-19T16:52:20.802Z,1.57
2019-03-19T16:54:50.633Z,1.37
2019-03-19T16:57:20.456Z,1.53
2019-03-19T16:59:50.278Z,1.13
2019-03-19T17:02:20.084Z,1.10
2019-03-19T17:04:50.255Z,1.10
2019-03-19T17:07:19.997Z,1.23
2019-03-19T17:09:49.818Z,1.47
2019-03-19T17:12:20.503Z,1.30
2019-03-19T17:14:50.316Z,1.10
2019-03-19T17:17:20.733Z,1.30
2019-03-19T17:19:50.563Z,1.33
2019-03-19T17:22:20.325Z,1.00
2019-03-19T17:24:51.261Z,1.33
2019-03-19T17:27:21.487Z,0.90
2019-03-19T17:29:52.399Z,1.30
2019-03-19T17:32:22.189Z,1.10
2019-03-19T17:34:52.447Z,1.20
2019-03-19T17:37:22.734Z,1.20
2019-03-19T17:39:52.643Z,1.03
2019-03-19T17:42:22.429Z,1.10
2019-03-19T17:44:52.246Z,1.40
2019-03-19T17:47:22.497Z,1.17
2019-03-19T17:49:53.061Z,1.10
2019-03-19T17:52:23.337Z,1.10
2019-03-19T17:54:53.160Z,1.30
2019-03-19T17:57:24.364Z,1.40
2019-03-19T17:59:54.199Z,1.20
2019-03-19T18:02:24.463Z,1.40
2019-03-19T18:04:55.237Z,1.40
2019-03-19T18:07:25.454Z,1.37
2019-03-19T18:09:55.275Z,1.43
2019-03-19T18:12:25.041Z,1.17
2019-03-19T18:14:55.285Z,1.00
2019-03-19T18:17:25.977Z,1.20
2019-03-19T18:19:56.332Z,1.23
2019-03-19T18:22:26.106Z,1.30
2019-03-19T18:24:56.804Z,1.67
2019-03-19T18:27:27.063Z,1.50
2019-03-19T18:29:58.922Z,1.70
2019-03-19T18:32:35.068Z,1.50
2019-03-19T18:35:02.196Z,1.43
2019-03-19T18:37:31.992Z,1.87
2019-03-19T18:40:01.797Z,2.27
2019-03-19T18:42:31.583Z,1.50
2019-03-19T18:45:01.853Z,2.00
2019-03-19T18:47:31.623Z,1.53
2019-03-19T18:50:01.502Z,1.70
2019-03-19T18:52:31.781Z,1.50
2019-03-19T18:55:01.596Z,1.50
2019-03-19T18:57:31.413Z,1.60
2019-03-19T19:00:01.359Z,1.47
2019-03-19T19:02:31.145Z,1.50
2019-03-19T19:05:00.955Z,1.53
2019-03-19T19:07:31.476Z,1.70
2019-03-19T19:10:01.302Z,1.63
2019-03-19T19:12:31.639Z,1.60
2019-03-19T19:15:01.844Z,1.30
2019-03-19T19:17:32.037Z,1.40
2019-03-19T19:20:03.583Z,1.53
2019-03-19T19:22:33.370Z,1.60
2019-03-19T19:25:03.655Z,1.50
2019-03-19T19:27:33.891Z,1.37
2019-03-19T19:30:04.932Z,1.73
2019-03-19T19:32:35.584Z,1.80
2019-03-19T19:35:07.118Z,1.50
2019-03-19T19:37:37.606Z,2.10
2019-03-19T19:40:09.163Z,2.57
2019-03-19T19:42:39.972Z,2.97
2019-03-19T19:45:10.396Z,3.07
2019-03-19T19:47:40.693Z,3.37
2019-03-19T19:50:12.898Z,3.33
2019-03-19T19:52:43.809Z,3.67
2019-03-19T19:55:14.901Z,3.30
2019-03-19T19:57:45.664Z,2.90
2019-03-19T20:00:17.533Z,3.10
2019-03-19T20:02:47.938Z,3.07
2019-03-19T20:05:24.212Z,3.30
2019-03-19T20:07:54.418Z,2.87
2019-03-19T20:10:24.687Z,2.90
2019-03-19T20:12:54.558Z,2.87
2019-03-19T20:15:25.138Z,3.00
2019-03-19T20:17:56.021Z,3.40
2019-03-19T20:20:26.335Z,3.70
2019-03-19T20:22:56.115Z,3.63
2019-03-19T20:25:25.932Z,3.40
2019-03-19T20:27:56.322Z,3.10
2019-03-19T20:30:26.509Z,3.70
2019-03-19T20:32:56.764Z,3.63
2019-03-19T20:35:26.660Z,3.77
2019-03-19T20:37:56.913Z,4.23
2019-03-19T20:40:26.714Z,3.63
2019-03-19T20:42:56.944Z,3.50
2019-03-19T20:45:27.339Z,3.67
2019-03-19T20:47:57.600Z,3.90
2019-03-19T20:50:29.325Z,3.27
2019-03-19T20:52:59.078Z,3.47
2019-03-19T20:55:28.931Z,3.60
2019-03-19T20:57:59.329Z,3.60
2019-03-19T21:00:29.461Z,3.30
2019-03-19T21:02:59.614Z,3.40
2019-03-19T21:05:29.788Z,2.93
2019-03-19T21:07:59.971Z,2.60
2019-03-19T21:10:29.747Z,2.47
2019-03-19T21:13:00.281Z,3.03
2019-03-19T21:15:30.197Z,3.37
2019-03-19T21:18:00.490Z,3.07
2019-03-19T21:20:31.095Z,3.70
2019-03-19T21:23:01.316Z,3.80
2019-03-19T21:25:31.425Z,3.00
2019-03-19T21:28:01.229Z,2.93
2019-03-19T21:30:30.991Z,2.20
2019-03-19T21:33:00.786Z,2.20
2019-03-19T21:35:30.546Z,2.30
2019-03-19T21:38:00.783Z,2.70
2019-03-19T21:40:30.552Z,2.57
2019-03-19T21:43:00.343Z,2.63
2019-03-19T21:45:30.154Z,2.07
2019-03-19T21:48:00.316Z,2.27
2019-03-19T21:50:31.553Z,2.00
2019-03-19T21:53:01.365Z,2.10
2019-03-19T21:55:31.181Z,2.00
2019-03-19T21:58:01.520Z,1.87
2019-03-19T22:00:31.283Z,1.50
2019-03-19T22:03:01.100Z,2.10
2019-03-19T22:05:32.094Z,2.07
2019-03-19T22:08:02.421Z,1.70
2019-03-19T22:10:32.158Z,1.73
2019-03-19T22:13:01.946Z,1.77
2019-03-19T22:15:32.226Z,1.90
2019-03-19T22:18:02.389Z,1.47
2019-03-19T22:20:32.153Z,1.60
2019-03-19T22:23:02.517Z,1.70
2019-03-19T22:25:32.255Z,1.43
2019-03-19T22:28:02.064Z,1.50
2019-03-19T22:30:32.325Z,1.50
2019-03-19T22:33:02.789Z,1.70
2019-03-19T22:35:32.572Z,1.80
2019-03-19T22:38:02.948Z,1.60
2019-03-19T22:40:33.203Z,2.10
2019-03-19T22:43:03.403Z,1.93
2019-03-19T22:45:33.562Z,2.00
2019-03-19T22:48:03.391Z,1.83
2019-03-19T22:50:33.594Z,2.13
2019-03-19T22:53:03.406Z,2.50
2019-03-19T22:55:33.730Z,2.13
2019-03-19T22:58:03.723Z,2.00
2019-03-19T23:00:43.367Z,2.30
2019-03-19T23:03:13.539Z,2.33
2019-03-19T23:05:43.312Z,2.47
2019-03-19T23:08:13.706Z,2.67
2019-03-19T23:10:43.917Z,2.27
2019-03-19T23:13:13.951Z,2.57
2019-03-19T23:15:44.143Z,2.53
2019-03-19T23:18:14.048Z,2.63
2019-03-19T23:20:43.797Z,2.70
2019-03-19T23:23:13.571Z,3.10
2019-03-19T23:25:43.327Z,2.77
2019-03-19T23:28:13.139Z,2.53
2019-03-19T23:30:42.918Z,3.00
2019-03-19T23:33:13.277Z,3.10
2019-03-19T23:35:43.048Z,2.60
2019-03-19T23:38:13.213Z,2.60
2019-03-19T23:40:43.411Z,2.60
2019-03-19T23:43:13.768Z,2.60
2019-03-19T23:45:43.546Z,2.70
2019-03-19T23:48:13.810Z,2.53
2019-03-19T23:50:43.583Z,2.83
2019-03-19T23:53:13.826Z,2.97
2019-03-19T23:55:43.632Z,3.10
2019-03-19T23:58:13.867Z,2.43
